createdAt,value
2023-05-14T00:01:47.246Z,5.65
2023-05-14T00:04:16.532Z,5.63
2023-05-14T00:06:44.270Z,5.30
2023-05-14T00:09:13.076Z,5.47
2023-05-14T00:11:40.842Z,5.65
2023-05-14T00:14:08.708Z,5.85
2023-05-14T00:16:36.658Z,6.30
2023-05-14T00:19:05.053Z,5.90
2023-05-14T00:21:34.335Z,5.85
2023-05-14T00:24:02.093Z,5.50
2023-05-14T00:26:30.570Z,6.40
2023-05-14T00:28:58.442Z,5.93
2023-05-14T00:31:26.245Z,6.38
2023-05-14T00:33:54.045Z,5.82
2023-05-14T00:36:21.820Z,5.60
2023-05-14T00:38:51.054Z,5.68
2023-05-14T00:41:18.785Z,6.00
2023-05-14T00:43:46.449Z,6.05
2023-05-14T00:46:15.220Z,6.20
2023-05-14T00:48:43.083Z,6.35
2023-05-14T00:51:10.783Z,6.60
2023-05-14T00:53:38.987Z,6.78
2023-05-14T00:56:09.103Z,6.15
2023-05-14T00:58:36.796Z,6.50
2023-05-14T01:01:04.782Z,6.18
2023-05-14T01:03:33.329Z,6.38
2023-05-14T01:06:08.227Z,6.25
2023-05-14T01:08:43.147Z,6.05
2023-05-14T01:11:14.949Z,6.38
2023-05-14T01:13:50.207Z,6.22
2023-05-14T01:16:20.021Z,6.45
2023-05-14T01:18:50.696Z,6.55
2023-05-14T01:21:36.963Z,6.82
2023-05-14T01:24:05.983Z,6.72
2023-05-14T01:26:33.957Z,6.85
2023-05-14T01:29:05.434Z,6.72
2023-05-14T01:31:33.940Z,6.63
2023-05-14T01:34:02.359Z,6.65
2023-05-14T01:36:32.867Z,6.90
2023-05-14T01:39:01.655Z,7.38
2023-05-14T01:41:31.212Z,7.35
2023-05-14T01:43:58.962Z,6.78
2023-05-14T01:46:26.706Z,6.93
2023-05-14T01:48:54.569Z,7.40
2023-05-14T01:51:22.217Z,6.95
2023-05-14T01:53:51.239Z,7.25
2023-05-14T01:56:21.633Z,7.18
2023-05-14T01:58:49.488Z,6.93
2023-05-14T02:01:17.535Z,7.80
2023-05-14T02:03:45.719Z,7.65
2023-05-14T02:06:13.504Z,7.40
2023-05-14T02:08:41.150Z,7.65
2023-05-14T02:11:10.244Z,7.60
2023-05-14T02:13:37.950Z,7.65
2023-05-14T02:16:07.060Z,8.15
2023-05-14T02:18:35.107Z,8.25
2023-05-14T02:21:03.332Z,8.10
2023-05-14T02:23:41.080Z,8.93
2023-05-14T02:26:12.198Z,8.10
2023-05-14T02:28:40.341Z,8.00
2023-05-14T02:31:08.223Z,8.48
2023-05-14T02:33:36.708Z,8.40
2023-05-14T02:36:04.606Z,8.77
2023-05-14T02:38:32.716Z,8.70
2023-05-14T02:41:01.150Z,8.15
2023-05-14T02:43:30.279Z,9.07
2023-05-14T02:45:58.001Z,8.98
2023-05-14T02:48:26.690Z,7.93
2023-05-14T02:50:55.350Z,8.63
2023-05-14T02:53:23.341Z,8.32
2023-05-14T02:55:51.034Z,8.77
2023-05-14T02:58:19.171Z,8.50
2023-05-14T03:00:57.495Z,8.13
2023-05-14T03:03:26.041Z,8.25
2023-05-14T03:05:54.044Z,8.93
2023-05-14T03:08:21.864Z,8.38
2023-05-14T03:10:49.612Z,8.40
2023-05-14T03:13:19.859Z,8.88
2023-05-14T03:15:48.417Z,9.20
2023-05-14T03:18:17.417Z,8.15
2023-05-14T03:20:47.156Z,8.95
2023-05-14T03:23:15.492Z,8.70
2023-05-14T03:25:43.281Z,8.45
2023-05-14T03:28:11.256Z,7.95
2023-05-14T03:30:39.441Z,8.48
2023-05-14T03:33:07.456Z,8.50
2023-05-14T03:35:36.665Z,8.73
2023-05-14T03:38:04.331Z,8.88
2023-05-14T03:40:33.763Z,8.93
2023-05-14T03:43:01.570Z,8.55
2023-05-14T03:45:30.406Z,8.32
2023-05-14T03:48:00.379Z,8.90
2023-05-14T03:50:28.213Z,8.52
2023-05-14T03:52:57.685Z,8.38
2023-05-14T03:55:25.671Z,8.35
2023-05-14T03:57:53.331Z,8.75
2023-05-14T04:00:21.814Z,8.32
2023-05-14T04:02:50.188Z,7.93
2023-05-14T04:05:18.432Z,7.80
2023-05-14T04:07:46.976Z,8.80
2023-05-14T04:10:16.233Z,8.55
2023-05-14T04:12:44.735Z,8.32
2023-05-14T04:15:12.801Z,7.40
2023-05-14T04:17:40.677Z,7.97
2023-05-14T04:20:09.619Z,8.93
2023-05-14T04:22:37.815Z,8.05
2023-05-14T04:25:06.126Z,8.13
2023-05-14T04:27:35.320Z,7.60
2023-05-14T04:30:03.147Z,8.63
2023-05-14T04:32:31.614Z,7.57
2023-05-14T04:34:59.748Z,7.93
2023-05-14T04:37:27.444Z,8.32
2023-05-14T04:39:55.069Z,8.00
2023-05-14T04:42:22.893Z,8.10
2023-05-14T04:44:52.211Z,8.13
2023-05-14T04:47:21.142Z,7.82
2023-05-14T04:49:48.977Z,8.00
2023-05-14T04:52:16.979Z,7.78
2023-05-14T04:54:44.767Z,7.85
2023-05-14T04:57:12.562Z,7.50
2023-05-14T04:59:40.343Z,8.90
2023-05-14T05:02:09.943Z,8.30
2023-05-14T05:04:37.558Z,7.78
2023-05-14T05:07:06.410Z,7.18
2023-05-14T05:09:34.143Z,6.90
2023-05-14T05:12:02.087Z,7.07
2023-05-14T05:14:29.858Z,6.32
2023-05-14T05:16:58.079Z,6.95
2023-05-14T05:19:39.678Z,6.43
2023-05-14T05:22:11.290Z,5.68
2023-05-14T05:24:39.008Z,6.15
2023-05-14T05:27:07.276Z,6.03
2023-05-14T05:29:35.646Z,5.80
2023-05-14T05:32:03.478Z,6.30
2023-05-14T05:34:33.542Z,6.70
2023-05-14T05:37:01.393Z,5.88
2023-05-14T05:39:35.306Z,6.05
2023-05-14T05:42:03.374Z,6.13
2023-05-14T05:44:31.175Z,5.90
2023-05-14T05:46:58.930Z,5.70
2023-05-14T05:49:26.590Z,6.00
2023-05-14T05:51:56.207Z,7.35
2023-05-14T05:54:25.099Z,6.78
2023-05-14T05:56:52.828Z,6.22
2023-05-14T05:59:20.732Z,5.82
2023-05-14T06:01:48.744Z,5.45
2023-05-14T06:04:16.536Z,5.57
2023-05-14T06:06:45.624Z,5.97
2023-05-14T06:09:14.878Z,5.90
2023-05-14T06:11:42.509Z,6.03
2023-05-14T06:14:10.334Z,5.70
2023-05-14T06:16:38.284Z,5.20
2023-05-14T06:19:06.394Z,5.88
2023-05-14T06:21:34.321Z,6.05
2023-05-14T06:24:02.055Z,5.65
2023-05-14T06:26:31.123Z,5.38
2023-05-14T06:28:59.320Z,5.25
2023-05-14T06:31:27.529Z,5.80
2023-05-14T06:33:55.607Z,4.97
2023-05-14T06:36:23.310Z,5.85
2023-05-14T06:38:51.471Z,5.60
2023-05-14T06:41:19.364Z,5.47
2023-05-14T06:43:48.427Z,5.53
2023-05-14T06:46:16.546Z,5.57
2023-05-14T06:48:45.076Z,6.43
2023-05-14T06:51:13.212Z,5.32
2023-05-14T06:53:41.482Z,5.70
2023-05-14T06:56:09.337Z,5.90
2023-05-14T06:58:37.598Z,5.45
2023-05-14T07:01:07.137Z,5.20
2023-05-14T07:03:35.762Z,5.30
2023-05-14T07:06:06.810Z,4.88
2023-05-14T07:08:34.670Z,5.13
2023-05-14T07:11:02.594Z,5.18
2023-05-14T07:13:30.715Z,4.80
2023-05-14T07:15:58.384Z,5.22
2023-05-14T07:18:28.117Z,4.65
2023-05-14T07:20:55.800Z,4.63
2023-05-14T07:23:24.004Z,5.75
2023-05-14T07:25:52.134Z,4.60
2023-05-14T07:28:20.177Z,4.63
2023-05-14T07:30:48.097Z,4.20
2023-05-14T07:33:15.914Z,4.28
2023-05-14T07:35:45.123Z,4.93
2023-05-14T07:38:12.964Z,4.40
2023-05-14T07:40:40.936Z,4.78
2023-05-14T07:43:09.152Z,4.40
2023-05-14T07:45:37.357Z,5.15
2023-05-14T07:48:05.613Z,4.25
2023-05-14T07:50:33.767Z,4.25
2023-05-14T07:53:03.333Z,5.28
2023-05-14T07:55:31.770Z,4.78
2023-05-14T07:57:59.987Z,5.00
2023-05-14T08:00:28.187Z,4.28
2023-05-14T08:02:56.949Z,4.20
2023-05-14T08:05:25.143Z,4.50
2023-05-14T08:07:52.816Z,4.40
2023-05-14T08:10:24.021Z,4.40
2023-05-14T08:12:51.905Z,4.70
2023-05-14T08:15:19.952Z,4.53
2023-05-14T08:17:47.736Z,4.38
2023-05-14T08:20:15.621Z,4.15
2023-05-14T08:22:43.769Z,4.60
2023-05-14T08:25:12.074Z,4.65
2023-05-14T08:27:41.295Z,4.82
2023-05-14T08:30:09.884Z,4.30
2023-05-14T08:32:38.363Z,4.60
2023-05-14T08:35:07.225Z,4.20
2023-05-14T08:37:35.083Z,4.10
2023-05-14T08:40:02.948Z,4.20
2023-05-14T08:42:31.256Z,3.85
2023-05-14T08:45:02.539Z,3.83
2023-05-14T08:47:32.001Z,4.40
2023-05-14T08:50:04.144Z,4.28
2023-05-14T08:52:32.395Z,3.72
2023-05-14T08:55:01.860Z,3.92
2023-05-14T08:57:30.000Z,3.60
2023-05-14T08:59:57.797Z,4.13
2023-05-14T09:02:30.092Z,4.10
2023-05-14T09:04:59.851Z,4.13
2023-05-14T09:07:28.010Z,4.40
2023-05-14T09:09:56.281Z,3.85
2023-05-14T09:12:24.491Z,4.25
2023-05-14T09:14:52.310Z,4.38
2023-05-14T09:17:20.531Z,4.47
2023-05-14T09:19:52.849Z,4.40
2023-05-14T09:22:21.096Z,4.00
2023-05-14T09:25:03.189Z,4.00
2023-05-14T09:27:32.285Z,4.10
2023-05-14T09:30:09.206Z,4.22
2023-05-14T09:32:38.184Z,4.40
2023-05-14T09:35:17.072Z,3.88
2023-05-14T09:37:46.537Z,4.25
2023-05-14T09:40:15.063Z,4.20
2023-05-14T09:42:43.174Z,3.78
2023-05-14T09:45:11.593Z,4.10
2023-05-14T09:47:39.862Z,3.83
2023-05-14T09:50:08.660Z,3.83
2023-05-14T09:52:40.113Z,4.75
2023-05-14T09:55:09.361Z,3.72
2023-05-14T09:57:37.295Z,4.00
2023-05-14T10:00:06.636Z,3.67
2023-05-14T10:02:38.527Z,4.32
2023-05-14T10:05:07.858Z,3.58
2023-05-14T10:07:41.558Z,3.80
2023-05-14T10:10:13.469Z,3.92
2023-05-14T10:12:41.730Z,3.97
2023-05-14T10:15:14.832Z,4.00
2023-05-14T10:17:49.889Z,3.72
2023-05-14T10:20:17.907Z,3.83
2023-05-14T10:22:47.334Z,4.40
2023-05-14T10:25:15.030Z,4.05
2023-05-14T10:27:43.375Z,3.92
2023-05-14T10:30:14.427Z,3.90
2023-05-14T10:32:44.166Z,3.80
2023-05-14T10:35:20.359Z,3.60
2023-05-14T10:37:52.065Z,3.60
2023-05-14T10:40:20.610Z,3.80
2023-05-14T10:42:48.339Z,4.18
2023-05-14T10:45:16.864Z,3.97
2023-05-14T10:47:46.978Z,3.92
2023-05-14T10:50:16.300Z,4.35
2023-05-14T10:52:45.226Z,3.65
2023-05-14T10:55:15.961Z,3.80
2023-05-14T10:57:46.386Z,4.05
2023-05-14T11:00:15.579Z,3.70
2023-05-14T11:02:44.670Z,3.80
2023-05-14T11:05:15.672Z,4.00
2023-05-14T11:07:45.481Z,4.18
2023-05-14T11:10:15.864Z,4.30
2023-05-14T11:12:45.048Z,4.28
2023-05-14T11:15:15.817Z,3.92
2023-05-14T11:17:46.149Z,4.07
2023-05-14T11:20:16.659Z,3.95
2023-05-14T11:22:45.104Z,4.45
2023-05-14T11:25:15.425Z,3.95
2023-05-14T11:27:44.620Z,3.70
2023-05-14T11:30:16.481Z,4.00
2023-05-14T11:32:45.820Z,4.28
2023-05-14T11:35:17.409Z,3.78
2023-05-14T11:37:51.274Z,4.05
2023-05-14T11:40:20.726Z,3.72
2023-05-14T11:42:48.446Z,4.05
2023-05-14T11:45:25.512Z,4.00
2023-05-14T11:47:53.642Z,3.50
2023-05-14T11:50:22.533Z,3.90
2023-05-14T11:52:51.018Z,4.28
2023-05-14T11:55:20.809Z,4.00
2023-05-14T11:57:48.829Z,4.10
2023-05-14T12:00:21.946Z,4.20
2023-05-14T12:02:50.397Z,3.97
2023-05-14T12:05:18.285Z,3.80
2023-05-14T12:07:46.439Z,3.88
2023-05-14T12:10:15.254Z,3.97
2023-05-14T12:12:46.444Z,4.22
2023-05-14T12:15:16.278Z,3.85
2023-05-14T12:17:44.459Z,4.10
2023-05-14T12:20:13.497Z,4.50
2023-05-14T12:22:43.465Z,4.40
2023-05-14T12:25:13.306Z,4.90
2023-05-14T12:27:41.986Z,3.75
2023-05-14T12:32:48.744Z,4.28
2023-05-14T12:35:17.234Z,3.78
2023-05-14T12:37:45.050Z,5.10
2023-05-14T12:40:13.477Z,4.30
2023-05-14T12:42:41.264Z,4.13
2023-05-14T12:45:11.048Z,4.25
2023-05-14T12:47:38.842Z,4.25
2023-05-14T12:50:08.430Z,4.32
2023-05-14T12:52:39.732Z,4.30
2023-05-14T12:55:09.344Z,4.53
2023-05-14T12:57:38.590Z,4.70
2023-05-14T13:00:07.951Z,4.38
2023-05-14T13:02:42.810Z,4.20
2023-05-14T13:05:11.521Z,4.20
2023-05-14T13:07:39.439Z,3.80
2023-05-14T13:10:08.128Z,5.15
2023-05-14T13:12:35.934Z,4.50
2023-05-14T13:15:03.777Z,4.25
2023-05-14T13:17:33.290Z,4.18
2023-05-14T13:20:02.447Z,4.43
2023-05-14T13:22:31.663Z,4.28
2023-05-14T13:24:59.448Z,4.10
2023-05-14T13:27:27.714Z,4.22
2023-05-14T13:29:55.441Z,4.30
2023-05-14T13:32:24.162Z,5.95
2023-05-14T13:34:52.134Z,4.80
2023-05-14T13:37:21.179Z,4.10
2023-05-14T13:39:50.617Z,4.10
2023-05-14T13:42:19.818Z,4.13
2023-05-14T13:44:47.510Z,3.60
2023-05-14T13:47:15.234Z,4.07
2023-05-14T13:49:44.026Z,3.50
2023-05-14T13:52:11.769Z,4.00
2023-05-14T13:54:40.814Z,4.35
2023-05-14T13:57:08.485Z,4.03
2023-05-14T13:59:36.153Z,4.18
2023-05-14T14:02:04.047Z,4.50
2023-05-14T14:04:32.014Z,5.28
2023-05-14T14:06:59.675Z,5.75
2023-05-14T14:09:27.721Z,4.15
2023-05-14T14:11:56.790Z,4.13
2023-05-14T14:14:24.659Z,4.68
2023-05-14T14:16:52.379Z,4.30
2023-05-14T14:19:20.915Z,4.38
2023-05-14T14:24:17.026Z,4.00
2023-05-14T14:26:44.726Z,4.05
2023-05-14T14:29:14.381Z,4.13
2023-05-14T14:31:43.430Z,3.90
2023-05-14T14:34:11.323Z,4.03
2023-05-14T14:36:39.184Z,4.38
2023-05-14T14:39:07.072Z,4.00
2023-05-14T14:41:34.781Z,4.70
2023-05-14T14:44:03.687Z,4.28
2023-05-14T14:46:33.743Z,4.88
2023-05-14T14:49:01.431Z,4.55
2023-05-14T14:51:30.085Z,3.90
2023-05-14T14:53:58.078Z,3.97
2023-05-14T14:56:28.176Z,4.10
2023-05-14T14:58:56.620Z,4.18
2023-05-14T15:01:24.424Z,4.10
2023-05-14T15:03:54.343Z,4.07
2023-05-14T15:06:22.096Z,4.40
2023-05-14T15:08:50.100Z,3.63
2023-05-14T15:11:18.289Z,4.50
2023-05-14T15:13:46.084Z,4.50
2023-05-14T15:16:13.902Z,4.78
2023-05-14T15:18:41.652Z,5.22
2023-05-14T15:21:10.926Z,4.28
2023-05-14T15:23:38.673Z,4.28
2023-05-14T15:26:06.670Z,4.57
2023-05-14T15:28:34.582Z,4.40
2023-05-14T15:31:02.518Z,4.95
2023-05-14T15:33:31.288Z,4.50
2023-05-14T15:35:58.990Z,4.30
2023-05-14T15:38:28.422Z,3.90
2023-05-14T15:40:56.072Z,4.00
2023-05-14T15:43:24.712Z,4.43
2023-05-14T15:45:52.370Z,3.90
2023-05-14T15:48:20.185Z,3.90
2023-05-14T15:50:49.885Z,4.03
2023-05-14T15:53:17.705Z,4.93
2023-05-14T15:55:48.826Z,4.40
2023-05-14T15:58:16.454Z,4.28
2023-05-14T16:00:44.093Z,4.47
2023-05-14T16:03:12.306Z,4.28
2023-05-14T16:05:42.523Z,4.30
2023-05-14T16:08:11.096Z,4.10
2023-05-14T16:10:39.491Z,4.40
2023-05-14T16:13:08.598Z,4.28
2023-05-14T16:15:36.421Z,4.30
2023-05-14T16:18:04.358Z,4.20
2023-05-14T16:20:32.287Z,4.82
2023-05-14T16:23:00.055Z,3.92
2023-05-14T16:25:34.867Z,4.65
2023-05-14T16:28:02.907Z,4.18
2023-05-14T16:30:32.496Z,4.40
2023-05-14T16:33:01.038Z,5.10
2023-05-14T16:35:29.263Z,4.10
2023-05-14T16:38:00.477Z,3.78
2023-05-14T16:40:28.902Z,3.97
2023-05-14T16:42:57.123Z,5.18
2023-05-14T16:45:25.410Z,4.20
2023-05-14T16:47:54.617Z,4.00
2023-05-14T16:50:22.478Z,4.25
2023-05-14T16:52:50.207Z,4.60
2023-05-14T16:55:19.452Z,4.20
2023-05-14T16:57:47.154Z,4.07
2023-05-14T17:00:16.512Z,4.22
2023-05-14T17:02:44.346Z,4.93
2023-05-14T17:05:14.087Z,4.10
2023-05-14T17:07:41.761Z,4.57
2023-05-14T17:10:10.648Z,4.85
2023-05-14T17:12:38.570Z,4.15
2023-05-14T17:15:08.166Z,4.10
2023-05-14T17:17:35.863Z,4.40
2023-05-14T17:20:05.856Z,4.40
2023-05-14T17:22:35.496Z,4.68
2023-05-14T17:25:03.550Z,5.80
2023-05-14T17:27:33.164Z,4.20
2023-05-14T17:30:01.228Z,4.40
2023-05-14T17:32:29.519Z,8.20
2023-05-14T17:34:57.612Z,4.70
2023-05-14T17:37:26.658Z,4.00
2023-05-14T17:39:55.688Z,4.45
2023-05-14T17:42:23.658Z,4.38
2023-05-14T17:44:51.370Z,4.55
2023-05-14T17:47:20.511Z,4.40
2023-05-14T17:49:48.528Z,4.05
2023-05-14T17:52:16.642Z,3.97
2023-05-14T17:54:44.471Z,4.25
2023-05-14T17:57:13.599Z,4.65
2023-05-14T17:59:42.350Z,4.43
2023-05-14T18:02:10.016Z,4.47
2023-05-14T18:04:37.787Z,4.07
2023-05-14T18:07:06.166Z,4.40
2023-05-14T18:09:33.926Z,4.47
2023-05-14T18:12:02.701Z,4.20
2023-05-14T18:14:32.096Z,4.40
2023-05-14T18:16:59.874Z,4.15
2023-05-14T18:19:27.675Z,4.60
2023-05-14T18:21:55.647Z,4.30
2023-05-14T18:24:24.083Z,4.53
2023-05-14T18:26:51.824Z,4.70
2023-05-14T18:29:19.649Z,4.45
2023-05-14T18:31:48.686Z,4.55
2023-05-14T18:34:16.953Z,4.55
2023-05-14T18:36:44.704Z,5.00
2023-05-14T18:39:13.944Z,4.60
2023-05-14T18:41:41.608Z,4.53
2023-05-14T18:44:09.447Z,4.47
2023-05-14T18:46:37.204Z,4.57
2023-05-14T18:49:06.358Z,4.70
2023-05-14T18:51:34.287Z,4.38
2023-05-14T18:54:01.963Z,4.68
2023-05-14T18:56:29.645Z,4.38
2023-05-14T18:58:57.545Z,4.90
2023-05-14T19:01:26.136Z,4.50
2023-05-14T19:03:54.084Z,4.25
2023-05-14T19:06:23.975Z,4.70
2023-05-14T19:08:52.397Z,4.30
2023-05-14T19:11:20.181Z,4.75
2023-05-14T19:13:49.651Z,4.88
2023-05-14T19:16:17.868Z,4.55
2023-05-14T19:18:45.650Z,4.60
2023-05-14T19:21:15.214Z,4.55
2023-05-14T19:23:45.302Z,4.88
2023-05-14T19:26:12.970Z,4.90
2023-05-14T19:28:40.814Z,5.47
2023-05-14T19:31:09.091Z,5.30
2023-05-14T19:33:36.863Z,5.28
2023-05-14T19:36:06.157Z,5.03
2023-05-14T19:38:33.936Z,5.28
2023-05-14T19:41:03.175Z,5.18
2023-05-14T19:43:31.475Z,4.88
2023-05-14T19:46:01.617Z,5.00
2023-05-14T19:48:31.446Z,5.32
2023-05-14T19:50:59.882Z,5.00
2023-05-14T19:53:29.772Z,5.38
2023-05-14T19:55:57.780Z,4.78
2023-05-14T19:58:27.330Z,5.10
2023-05-14T20:00:57.235Z,4.50
2023-05-14T20:03:26.503Z,5.03
2023-05-14T20:05:55.812Z,5.07
2023-05-14T20:08:25.175Z,4.80
2023-05-14T20:10:53.462Z,5.30
2023-05-14T20:13:23.067Z,5.00
2023-05-14T20:15:53.326Z,5.03
2023-05-14T20:18:22.301Z,5.35
2023-05-14T20:20:50.880Z,5.15
2023-05-14T20:23:20.272Z,5.30
2023-05-14T20:25:48.810Z,5.60
2023-05-14T20:28:18.599Z,5.63
2023-05-14T20:30:46.776Z,5.57
2023-05-14T20:33:16.021Z,5.60
2023-05-14T20:35:44.187Z,5.63
2023-05-14T20:38:13.366Z,6.50
2023-05-14T20:40:41.763Z,6.15
2023-05-14T20:43:09.462Z,6.28
2023-05-14T20:45:37.513Z,5.97
2023-05-14T20:48:09.969Z,5.95
2023-05-14T20:50:39.872Z,6.10
2023-05-14T20:53:08.190Z,6.03
2023-05-14T20:55:36.343Z,6.28
2023-05-14T20:58:04.129Z,5.78
2023-05-14T21:00:32.092Z,6.25
2023-05-14T21:03:00.758Z,5.78
2023-05-14T21:05:28.690Z,6.20
2023-05-14T21:07:57.852Z,6.47
2023-05-14T21:10:26.047Z,6.63
2023-05-14T21:12:54.536Z,6.53
2023-05-14T21:15:22.544Z,6.75
2023-05-14T21:17:50.659Z,6.95
2023-05-14T21:20:18.741Z,6.30
2023-05-14T21:22:46.441Z,6.80
2023-05-14T21:25:16.035Z,6.43
2023-05-14T21:27:43.714Z,6.57
2023-05-14T21:30:13.463Z,6.90
2023-05-14T21:32:41.530Z,7.32
2023-05-14T21:35:10.301Z,6.40
2023-05-14T21:37:39.735Z,6.85
2023-05-14T21:40:09.252Z,6.88
2023-05-14T21:42:39.446Z,7.03
2023-05-14T21:45:08.772Z,7.75
2023-05-14T21:47:36.925Z,6.68
2023-05-14T21:50:05.904Z,6.53
2023-05-14T21:52:34.112Z,6.63
2023-05-14T21:55:02.287Z,6.43
2023-05-14T21:57:34.066Z,7.03
2023-05-14T22:00:04.584Z,7.47
2023-05-14T22:02:32.482Z,6.97
2023-05-14T22:05:01.130Z,6.40
2023-05-14T22:07:29.498Z,6.68
2023-05-14T22:09:57.622Z,7.85
2023-05-14T22:12:26.049Z,7.38
2023-05-14T22:14:53.787Z,7.55
2023-05-14T22:17:23.153Z,7.20
2023-05-14T22:19:50.890Z,7.20
2023-05-14T22:22:19.490Z,7.78
2023-05-14T22:24:47.141Z,6.80
2023-05-14T22:27:14.824Z,6.75
2023-05-14T22:29:42.902Z,6.50
2023-05-14T22:32:10.656Z,7.00
2023-05-14T22:34:39.803Z,7.75
2023-05-14T22:37:07.637Z,7.00
2023-05-14T22:39:35.705Z,8.77
2023-05-14T22:42:04.306Z,8.73
2023-05-14T22:44:32.408Z,8.20
2023-05-14T22:47:00.150Z,7.85
2023-05-14T22:49:27.869Z,7.72
2023-05-14T22:51:56.967Z,7.72
2023-05-14T22:54:24.744Z,8.32
2023-05-14T22:56:52.720Z,7.60
2023-05-14T22:59:22.724Z,7.75
2023-05-14T23:01:51.514Z,8.57
2023-05-14T23:04:19.315Z,8.18
2023-05-14T23:06:47.354Z,8.30
2023-05-14T23:09:16.856Z,8.70
2023-05-14T23:11:44.927Z,9.40
2023-05-14T23:14:12.588Z,8.35
2023-05-14T23:16:40.616Z,9.18
2023-05-14T23:19:08.411Z,8.82
2023-05-14T23:21:36.326Z,8.80
2023-05-14T23:24:04.759Z,8.88
2023-05-14T23:26:33.932Z,9.55
2023-05-14T23:29:01.696Z,8.52
2023-05-14T23:31:29.652Z,8.38
2023-05-14T23:33:57.818Z,8.98
2023-05-14T23:36:25.492Z,8.95
2023-05-14T23:38:53.161Z,9.38
2023-05-14T23:41:21.743Z,8.77
2023-05-14T23:43:51.174Z,8.90
2023-05-14T23:46:19.619Z,9.20
2023-05-14T23:48:47.421Z,9.02
2023-05-14T23:51:15.128Z,9.43
2023-05-14T23:53:43.668Z,9.30
2023-05-14T23:56:11.410Z,9.13
2023-05-14T23:58:39.064Z,9.30
